createdAt,value
2023-04-11T00:01:43.843Z,11.82
2023-04-11T00:04:17.952Z,11.82
2023-04-11T00:06:51.872Z,11.80
2023-04-11T00:09:25.736Z,11.78
2023-04-11T00:12:02.955Z,11.78
2023-04-11T00:14:36.766Z,11.80
2023-04-11T00:17:13.223Z,11.81
2023-04-11T00:19:47.525Z,11.80
2023-04-11T00:22:24.633Z,11.80
2023-04-11T00:24:56.443Z,11.79
2023-04-11T00:27:30.846Z,11.73
2023-04-11T00:30:04.612Z,11.64
2023-04-11T00:32:38.788Z,11.60
2023-04-11T00:35:13.457Z,11.58
2023-04-11T00:37:47.679Z,11.59
2023-04-11T00:40:21.615Z,11.62
2023-04-11T00:42:55.623Z,11.65
2023-04-11T00:45:29.598Z,11.67
2023-04-11T00:48:03.584Z,11.69
2023-04-11T00:50:37.297Z,11.71
2023-04-11T00:53:12.124Z,11.72
2023-04-11T00:55:46.135Z,11.70
2023-04-11T00:58:19.834Z,11.68
2023-04-11T01:00:53.518Z,11.64
2023-04-11T01:03:27.569Z,11.62
2023-04-11T01:06:01.463Z,11.58
2023-04-11T01:08:36.014Z,11.54
2023-04-11T01:11:11.096Z,11.52
2023-04-11T01:13:45.407Z,11.49
2023-04-11T01:16:21.942Z,11.50
2023-04-11T01:18:56.405Z,11.48
2023-04-11T01:21:30.487Z,11.48
2023-04-11T01:24:04.458Z,11.45
2023-04-11T01:26:38.045Z,11.40
2023-04-11T01:29:12.104Z,11.33
2023-04-11T01:31:47.045Z,11.26
2023-04-11T01:34:21.453Z,11.20
2023-04-11T01:36:55.225Z,11.16
2023-04-11T01:39:29.257Z,11.15
2023-04-11T01:42:04.607Z,11.14
2023-04-11T01:44:39.147Z,11.12
2023-04-11T01:47:12.882Z,11.06
2023-04-11T01:49:47.667Z,11.01
2023-04-11T01:52:21.579Z,10.96
2023-04-11T01:54:55.517Z,10.91
2023-04-11T01:57:29.960Z,10.86
2023-04-11T02:00:04.593Z,10.84
2023-04-11T02:02:38.422Z,10.83
2023-04-11T02:05:13.504Z,10.82
2023-04-11T02:07:47.448Z,10.78
2023-04-11T02:10:21.321Z,10.71
2023-04-11T02:12:55.238Z,10.65
2023-04-11T02:15:29.487Z,10.62
2023-04-11T02:18:03.033Z,10.61
2023-04-11T02:20:37.868Z,10.59
2023-04-11T02:23:11.744Z,10.56
2023-04-11T02:25:46.162Z,10.52
2023-04-11T02:28:20.093Z,10.48
2023-04-11T02:30:54.448Z,10.43
2023-04-11T02:33:28.145Z,10.37
2023-04-11T02:36:04.230Z,10.32
2023-04-11T02:38:38.596Z,10.32
2023-04-11T02:41:12.742Z,10.38
2023-04-11T02:43:47.126Z,10.44
2023-04-11T02:46:21.357Z,10.49
2023-04-11T02:48:55.327Z,10.55
2023-04-11T02:51:29.483Z,10.63
2023-04-11T02:54:03.342Z,10.69
2023-04-11T02:56:39.330Z,10.75
2023-04-11T02:59:13.161Z,10.81
2023-04-11T03:01:47.399Z,10.86
2023-04-11T03:04:21.281Z,10.90
2023-04-11T03:06:55.452Z,10.92
2023-04-11T03:09:29.111Z,10.96
2023-04-11T03:12:02.992Z,11.04
2023-04-11T03:14:36.681Z,11.18
2023-04-11T03:17:10.693Z,11.36
2023-04-11T03:19:44.458Z,11.53
2023-04-11T03:22:18.559Z,11.70
2023-04-11T03:24:52.252Z,11.82
2023-04-11T03:27:25.876Z,11.96
2023-04-11T03:29:59.657Z,12.15
2023-04-11T03:32:33.574Z,12.37
2023-04-11T03:35:09.286Z,12.73
2023-04-11T03:37:42.976Z,13.41
2023-04-11T03:40:18.927Z,14.29
2023-04-11T03:42:53.556Z,15.22
2023-04-11T03:45:28.425Z,16.17
2023-04-11T03:48:02.375Z,17.11
2023-04-11T03:50:37.372Z,17.96
2023-04-11T03:53:11.532Z,18.69
2023-04-11T03:55:47.069Z,19.34
2023-04-11T03:58:22.024Z,19.94
2023-04-11T04:00:55.946Z,20.60
2023-04-11T04:03:30.027Z,21.30
2023-04-11T04:06:14.820Z,22.01
2023-04-11T04:08:49.817Z,22.83
2023-04-11T04:11:24.324Z,23.50
2023-04-11T04:13:58.818Z,24.20
2023-04-11T04:16:34.777Z,24.97
2023-04-11T04:19:11.162Z,25.75
2023-04-11T04:21:47.890Z,26.35
2023-04-11T04:24:21.738Z,26.35
2023-04-11T04:26:58.375Z,26.23
2023-04-11T04:29:39.116Z,25.68
2023-04-11T04:32:15.231Z,26.21
2023-04-11T04:34:50.368Z,27.16
2023-04-11T04:37:28.680Z,28.03
2023-04-11T04:40:08.836Z,28.69
2023-04-11T04:42:45.865Z,29.00
2023-04-11T04:45:21.322Z,29.66
2023-04-11T04:47:56.111Z,30.65
2023-04-11T04:50:30.396Z,31.54
2023-04-11T04:53:04.642Z,32.23
2023-04-11T04:55:38.631Z,32.96
2023-04-11T04:58:13.267Z,33.64
2023-04-11T05:00:50.087Z,34.33
2023-04-11T05:03:24.547Z,35.09
2023-04-11T05:06:01.771Z,35.81
2023-04-11T05:08:36.225Z,36.46
2023-04-11T05:11:10.290Z,36.91
2023-04-11T05:13:43.903Z,37.35
2023-04-11T05:16:18.105Z,37.90
2023-04-11T05:18:51.705Z,38.64
2023-04-11T05:21:25.686Z,39.31
2023-04-11T05:23:59.391Z,39.98
2023-04-11T05:26:33.472Z,40.59
2023-04-11T05:29:07.531Z,41.05
2023-04-11T05:31:41.764Z,41.51
2023-04-11T05:34:16.945Z,41.97
2023-04-11T05:36:51.795Z,42.64
2023-04-11T05:39:25.887Z,43.21
2023-04-11T05:42:00.029Z,43.78
2023-04-11T05:44:33.952Z,44.28
2023-04-11T05:47:07.641Z,44.61
2023-04-11T05:49:42.753Z,44.93
2023-04-11T05:52:17.017Z,45.16
2023-04-11T05:54:58.505Z,45.31
2023-04-11T05:57:32.361Z,45.64
2023-04-11T06:00:13.257Z,45.98
2023-04-11T06:02:48.278Z,46.28
2023-04-11T06:05:22.805Z,46.29
2023-04-11T06:07:59.256Z,46.46
2023-04-11T06:10:34.207Z,46.55
2023-04-11T06:13:09.413Z,46.57
2023-04-11T06:15:43.524Z,46.65
2023-04-11T06:18:17.460Z,46.63
2023-04-11T06:20:51.453Z,46.64
2023-04-11T06:23:25.443Z,46.26
2023-04-11T06:26:01.640Z,45.48
2023-04-11T06:28:35.767Z,45.06
2023-04-11T06:31:13.006Z,44.59
2023-04-11T06:33:47.052Z,44.22
2023-04-11T06:36:21.081Z,43.76
2023-04-11T06:38:54.800Z,43.53
2023-04-11T06:41:29.315Z,42.72
2023-04-11T06:44:03.464Z,41.95
2023-04-11T06:46:37.284Z,42.81
2023-04-11T06:49:12.314Z,43.55
2023-04-11T06:51:47.755Z,44.86
2023-04-11T06:54:24.673Z,45.66
2023-04-11T06:56:59.618Z,45.07
2023-04-11T06:59:34.017Z,44.36
2023-04-11T07:02:08.407Z,43.31
2023-04-11T07:04:42.820Z,42.49
2023-04-11T07:07:17.495Z,41.82
2023-04-11T07:09:51.703Z,40.86
2023-04-11T07:12:25.480Z,40.73
2023-04-11T07:14:59.639Z,41.05
2023-04-11T07:17:34.049Z,41.65
2023-04-11T07:20:12.287Z,42.09
2023-04-11T07:22:46.824Z,42.27
2023-04-11T07:25:23.198Z,42.18
2023-04-11T07:27:57.590Z,41.77
2023-04-11T07:30:30.381Z,40.77
2023-04-11T07:33:06.214Z,39.77
2023-04-11T07:35:40.332Z,38.85
2023-04-11T07:38:16.196Z,38.12
2023-04-11T07:40:50.674Z,37.76
2023-04-11T07:43:25.666Z,37.64
2023-04-11T07:46:00.390Z,37.44
2023-04-11T07:48:34.953Z,37.58
2023-04-11T07:51:09.848Z,37.51
2023-04-11T07:53:43.609Z,37.36
2023-04-11T07:56:18.714Z,36.99
2023-04-11T07:58:53.383Z,36.02
2023-04-11T08:01:28.475Z,35.26
2023-04-11T08:04:27.736Z,35.05
2023-04-11T08:07:04.027Z,34.56
2023-04-11T08:09:42.992Z,34.50
2023-04-11T08:12:17.259Z,34.63
2023-04-11T08:14:55.411Z,34.86
2023-04-11T08:17:29.922Z,34.03
2023-04-11T08:20:05.633Z,32.70
2023-04-11T08:22:42.626Z,31.55
2023-04-11T08:25:19.704Z,30.75
2023-04-11T08:27:56.278Z,30.09
2023-04-11T08:30:30.661Z,29.48
2023-04-11T08:33:05.207Z,28.70
2023-04-11T08:35:43.580Z,28.13
2023-04-11T08:38:19.337Z,27.68
2023-04-11T08:40:52.385Z,27.50
2023-04-11T08:43:26.395Z,27.29
2023-04-11T08:46:00.550Z,26.90
2023-04-11T08:48:34.488Z,26.66
2023-04-11T08:51:18.511Z,26.46
2023-04-11T08:54:14.146Z,26.20
2023-04-11T08:56:51.936Z,25.91
2023-04-11T08:59:27.852Z,25.66
2023-04-11T09:02:25.274Z,25.52
2023-04-11T09:04:59.889Z,25.43
2023-04-11T09:07:35.672Z,25.35
2023-04-11T09:10:26.430Z,25.13
2023-04-11T09:13:01.146Z,24.81
2023-04-11T09:15:37.292Z,24.55
2023-04-11T09:18:11.119Z,24.48
2023-04-11T09:20:45.277Z,24.48
2023-04-11T09:23:32.059Z,24.32
2023-04-11T09:26:08.675Z,24.17
2023-04-11T09:28:53.142Z,24.18
2023-04-11T09:31:44.772Z,24.15
2023-04-11T09:34:28.548Z,23.83
2023-04-11T09:37:04.526Z,23.48
2023-04-11T09:39:38.390Z,23.33
2023-04-11T09:42:27.316Z,23.16
2023-04-11T09:45:01.539Z,23.09
2023-04-11T09:47:37.912Z,22.96
2023-04-11T09:50:11.905Z,22.90
2023-04-11T09:52:47.874Z,23.02
2023-04-11T09:55:26.105Z,23.28
2023-04-11T09:58:02.967Z,23.42
2023-04-11T10:00:36.887Z,23.24
2023-04-11T10:03:10.786Z,22.94
2023-04-11T10:05:45.758Z,22.63
2023-04-11T10:08:29.021Z,22.34
2023-04-11T10:11:07.867Z,22.15
2023-04-11T10:13:46.498Z,22.07
2023-04-11T10:16:22.945Z,21.94
2023-04-11T10:19:27.769Z,21.80
2023-04-11T10:22:04.816Z,21.70
2023-04-11T10:24:40.625Z,21.73
2023-04-11T10:27:14.449Z,21.73
2023-04-11T10:29:55.028Z,21.62
2023-04-11T10:32:29.974Z,21.58
2023-04-11T10:35:26.331Z,21.51
2023-04-11T10:38:00.460Z,21.38
2023-04-11T10:40:34.968Z,21.34
2023-04-11T10:46:29.471Z,21.39
2023-04-11T10:49:02.748Z,21.26
2023-04-11T10:51:35.129Z,21.09
2023-04-11T10:54:26.477Z,21.01
2023-04-11T10:56:58.554Z,20.84
2023-04-11T11:00:00.833Z,20.66
2023-04-11T11:02:43.155Z,20.63
2023-04-11T11:05:25.186Z,20.59
2023-04-11T11:07:55.982Z,20.56
2023-04-11T11:10:46.875Z,20.54
2023-04-11T11:13:19.796Z,20.42
2023-04-11T11:15:52.794Z,20.24
2023-04-11T11:18:23.383Z,19.97
2023-04-11T11:20:57.519Z,19.72
2023-04-11T11:23:28.257Z,19.57
2023-04-11T11:26:00.960Z,19.39
2023-04-11T11:28:32.048Z,19.23
2023-04-11T11:31:04.178Z,19.05
2023-04-11T11:33:42.199Z,18.90
2023-04-11T11:36:13.283Z,18.93
2023-04-11T11:38:46.588Z,19.11
2023-04-11T11:41:17.825Z,19.35
2023-04-11T11:43:48.369Z,19.57
2023-04-11T11:46:21.568Z,19.74
2023-04-11T11:49:01.788Z,19.86
2023-04-11T11:51:42.697Z,19.99
2023-04-11T11:54:13.828Z,20.11
2023-04-11T11:56:52.668Z,20.22
2023-04-11T11:59:29.146Z,20.32
2023-04-11T12:01:58.408Z,20.49
2023-04-11T12:04:30.653Z,20.65
2023-04-11T12:07:10.079Z,20.81
2023-04-11T12:09:41.107Z,21.00
2023-04-11T12:12:12.267Z,21.13
2023-04-11T12:14:42.724Z,21.19
2023-04-11T12:17:16.216Z,21.19
2023-04-11T12:19:46.805Z,21.20
2023-04-11T12:22:17.416Z,21.26
2023-04-11T12:24:48.568Z,21.28
2023-04-11T12:27:19.719Z,21.26
2023-04-11T12:29:52.061Z,21.25
2023-04-11T12:32:27.209Z,21.17
2023-04-11T12:34:58.274Z,21.08
2023-04-11T12:37:29.220Z,21.04
2023-04-11T12:40:00.232Z,21.08
2023-04-11T12:42:32.220Z,21.13
2023-04-11T12:45:04.396Z,21.21
2023-04-11T12:47:34.887Z,21.28
2023-04-11T12:50:07.920Z,21.33
2023-04-11T12:52:42.077Z,21.33
2023-04-11T12:55:14.683Z,21.30
2023-04-11T12:57:46.007Z,21.21
2023-04-11T13:00:19.174Z,21.11
2023-04-11T13:02:51.380Z,21.05
2023-04-11T13:05:27.655Z,20.97
2023-04-11T13:07:59.705Z,20.84
2023-04-11T13:10:30.539Z,20.72
2023-04-11T13:13:11.640Z,20.65
2023-04-11T13:15:48.637Z,20.59
2023-04-11T13:18:19.226Z,20.56
2023-04-11T13:20:49.859Z,20.53
2023-04-11T13:23:20.659Z,20.51
2023-04-11T13:26:00.752Z,20.50
2023-04-11T13:28:34.828Z,20.48
2023-04-11T13:31:10.699Z,20.39
2023-04-11T13:33:41.493Z,20.28
2023-04-11T13:36:13.571Z,20.25
2023-04-11T13:38:44.375Z,20.24
2023-04-11T13:41:15.061Z,20.24
2023-04-11T13:43:50.050Z,20.18
2023-04-11T13:46:25.276Z,20.11
2023-04-11T13:48:56.695Z,20.07
2023-04-11T13:51:30.012Z,20.05
2023-04-11T13:54:02.388Z,20.03
2023-04-11T13:56:32.972Z,20.00
2023-04-11T13:59:04.279Z,19.95
2023-04-11T14:01:35.362Z,19.89
2023-04-11T14:04:21.875Z,19.79
2023-04-11T14:06:53.757Z,19.63
2023-04-11T14:09:30.672Z,19.40
2023-04-11T14:12:03.030Z,19.14
2023-04-11T14:14:34.693Z,18.92
2023-04-11T14:17:07.913Z,18.74
2023-04-11T14:19:42.407Z,18.57
2023-04-11T14:22:17.103Z,18.40
2023-04-11T14:24:50.104Z,18.24
2023-04-11T14:27:20.526Z,18.10
2023-04-11T14:29:55.413Z,17.98
2023-04-11T14:32:27.230Z,17.84
2023-04-11T14:34:58.395Z,17.67
2023-04-11T14:37:29.932Z,17.51
2023-04-11T14:40:00.916Z,17.36
2023-04-11T14:42:32.626Z,17.23
2023-04-11T14:48:55.794Z,16.99
2023-04-11T14:51:28.826Z,16.93
2023-04-11T14:53:59.990Z,16.92
2023-04-11T14:56:32.240Z,16.93
2023-04-11T14:59:03.098Z,16.97
2023-04-11T15:01:33.968Z,16.99
2023-04-11T15:04:05.011Z,17.02
2023-04-11T15:06:39.797Z,17.05
2023-04-11T15:09:19.893Z,17.06
2023-04-11T15:11:56.801Z,17.07
2023-04-11T15:14:31.234Z,17.08
2023-04-11T15:17:05.094Z,17.08
2023-04-11T15:19:43.185Z,17.07
2023-04-11T15:22:13.841Z,17.07
2023-04-11T15:24:50.730Z,17.06
2023-04-11T15:27:24.345Z,17.06
2023-04-11T15:29:59.590Z,17.05
2023-04-11T15:32:30.479Z,17.02
2023-04-11T15:35:03.985Z,17.00
2023-04-11T15:37:34.498Z,16.98
2023-04-11T15:40:12.383Z,16.97
2023-04-11T15:42:45.109Z,16.96
2023-04-11T15:45:16.916Z,16.95
2023-04-11T15:47:55.241Z,16.95
2023-04-11T15:50:27.336Z,16.96
2023-04-11T15:53:03.148Z,16.95
2023-04-11T15:55:38.241Z,16.96
2023-04-11T15:58:13.207Z,16.97
2023-04-11T16:00:44.920Z,16.97
2023-04-11T16:03:32.486Z,16.97
2023-04-11T16:06:05.549Z,16.98
2023-04-11T16:08:36.141Z,16.98
2023-04-11T16:11:08.345Z,16.99
2023-04-11T16:13:43.893Z,16.99
2023-04-11T16:16:14.682Z,17.00
2023-04-11T16:18:48.286Z,16.99
2023-04-11T16:21:21.777Z,16.99
2023-04-11T16:23:55.326Z,16.99
2023-04-11T16:26:26.865Z,17.00
2023-04-11T16:29:00.388Z,16.99
2023-04-11T16:34:51.777Z,16.88
2023-04-11T16:37:26.265Z,16.83
2023-04-11T16:40:00.255Z,16.79
2023-04-11T16:42:31.547Z,16.76
2023-04-11T16:45:06.815Z,16.75
2023-04-11T16:47:39.401Z,16.74
2023-04-11T16:50:12.525Z,16.70
2023-04-11T16:52:51.138Z,16.67
2023-04-11T16:55:23.271Z,16.63
2023-04-11T16:57:56.127Z,16.60
2023-04-11T17:00:29.733Z,16.57
2023-04-11T17:03:14.519Z,16.55
2023-04-11T17:05:57.512Z,16.50
2023-04-11T17:08:30.508Z,16.42
2023-04-11T17:11:09.113Z,16.37
2023-04-11T17:13:45.758Z,16.33
2023-04-11T17:16:21.102Z,16.33
2023-04-11T17:18:53.473Z,16.36
2023-04-11T17:21:34.095Z,16.39
2023-04-11T17:24:05.256Z,16.43
2023-04-11T17:26:41.851Z,16.46
2023-04-11T17:29:13.477Z,16.48
2023-04-11T17:31:48.504Z,16.49
2023-04-11T17:34:19.274Z,16.47
2023-04-11T17:36:50.595Z,16.44
2023-04-11T17:39:23.423Z,16.43
2023-04-11T17:41:55.565Z,16.41
2023-04-11T17:44:26.974Z,16.40
2023-04-11T17:46:58.601Z,16.39
2023-04-11T17:49:31.714Z,16.38
2023-04-11T17:52:03.234Z,16.36
2023-04-11T17:54:51.473Z,16.35
2023-04-11T17:57:41.582Z,16.32
2023-04-11T18:00:23.571Z,16.29
2023-04-11T18:03:10.313Z,16.25
2023-04-11T18:06:38.051Z,16.20
2023-04-11T18:09:32.674Z,16.15
2023-04-11T18:12:34.525Z,16.11
2023-04-11T18:15:55.174Z,16.09
2023-04-11T18:18:56.747Z,16.06
2023-04-11T18:21:48.374Z,16.03
2023-04-11T18:24:23.948Z,16.00
2023-04-11T18:27:03.982Z,15.97
2023-04-11T18:29:54.166Z,15.98
2023-04-11T18:32:32.350Z,16.01
2023-04-11T18:35:30.698Z,16.04
2023-04-11T18:38:16.189Z,16.09
2023-04-11T18:40:56.535Z,16.14
2023-04-11T18:43:38.624Z,16.16
2023-04-11T18:46:28.229Z,16.17
2023-04-11T18:49:22.636Z,16.18
2023-04-11T18:52:17.092Z,16.18
2023-04-11T18:55:22.284Z,16.18
2023-04-11T18:58:15.129Z,16.17
2023-04-11T19:00:54.326Z,16.16
2023-04-11T19:03:29.031Z,16.16
2023-04-11T19:06:18.650Z,16.16
2023-04-11T19:08:55.731Z,16.16
2023-04-11T19:11:45.063Z,16.16
2023-04-11T19:15:00.787Z,16.15
2023-04-11T19:18:26.093Z,16.12
2023-04-11T19:22:05.053Z,16.09
2023-04-11T19:25:00.865Z,16.07
2023-04-11T19:28:01.348Z,16.07
2023-04-11T19:31:05.199Z,16.07
2023-04-11T19:34:01.179Z,16.08
2023-04-11T19:36:56.546Z,16.10
2023-04-11T19:39:45.952Z,16.09
2023-04-11T19:42:43.322Z,16.09
2023-04-11T19:46:05.103Z,16.09
2023-04-11T19:48:44.545Z,16.07
2023-04-11T19:51:21.848Z,16.04
2023-04-11T19:53:59.428Z,16.01
2023-04-11T19:56:33.387Z,15.98
2023-04-11T19:59:04.701Z,15.93
2023-04-11T20:01:36.513Z,15.90
2023-04-11T20:04:32.500Z,15.86
2023-04-11T20:07:11.520Z,15.80
2023-04-11T20:09:56.672Z,15.76
2023-04-11T20:12:39.991Z,15.72
2023-04-11T20:15:55.925Z,15.72
2023-04-11T20:18:37.641Z,15.71
2023-04-11T20:21:17.865Z,15.70
2023-04-11T20:23:51.977Z,15.70
2023-04-11T20:26:29.025Z,15.70
2023-04-11T20:29:01.695Z,15.72
2023-04-11T20:31:43.929Z,15.73
2023-04-11T20:34:19.139Z,15.72
2023-04-11T20:36:56.759Z,15.71
2023-04-11T20:39:27.214Z,15.68
2023-04-11T20:42:10.663Z,15.65
2023-04-11T20:44:50.426Z,15.60
2023-04-11T20:47:38.097Z,15.55
2023-04-11T20:50:21.399Z,15.52
2023-04-11T20:53:00.987Z,15.47
2023-04-11T20:55:43.088Z,15.41
2023-04-11T20:58:26.278Z,15.35
2023-04-11T21:01:00.326Z,15.30
2023-04-11T21:03:36.508Z,15.29
2023-04-11T21:06:11.723Z,15.28
2023-04-11T21:08:46.700Z,15.27
2023-04-11T21:11:23.497Z,15.28
2023-04-11T21:13:56.036Z,15.28
2023-04-11T21:16:29.208Z,15.29
2023-04-11T21:19:04.160Z,15.26
2023-04-11T21:21:46.858Z,15.24
2023-04-11T21:24:26.789Z,15.23
2023-04-11T21:27:00.069Z,15.22
2023-04-11T21:29:31.941Z,15.20
2023-04-11T21:32:03.569Z,15.18
2023-04-11T21:34:34.997Z,15.14
2023-04-11T21:37:05.661Z,15.09
2023-04-11T21:39:38.458Z,15.03
2023-04-11T21:42:09.214Z,15.00
2023-04-11T21:44:39.838Z,14.99
2023-04-11T21:47:10.628Z,14.99
2023-04-11T21:49:41.429Z,14.98
2023-04-11T21:52:12.057Z,15.00
2023-04-11T21:54:44.671Z,15.03
2023-04-11T21:57:15.938Z,15.06
2023-04-11T21:59:51.884Z,15.08
2023-04-11T22:02:29.180Z,15.10
2023-04-11T22:05:07.332Z,15.10
2023-04-11T22:07:39.050Z,15.10
2023-04-11T22:10:11.930Z,15.07
2023-04-11T22:12:45.915Z,15.05
2023-04-11T22:15:18.779Z,15.00
2023-04-11T22:17:50.498Z,14.97
2023-04-11T22:20:24.049Z,14.91
2023-04-11T22:22:57.755Z,14.86
2023-04-11T22:25:32.959Z,14.83
2023-04-11T22:28:04.761Z,14.81
2023-04-11T22:30:37.913Z,14.82
2023-04-11T22:33:13.522Z,14.84
2023-04-11T22:35:47.294Z,14.81
2023-04-11T22:38:17.743Z,14.77
2023-04-11T22:40:48.818Z,14.73
2023-04-11T22:43:19.371Z,14.71
2023-04-11T22:45:49.713Z,14.69
2023-04-11T22:48:20.602Z,14.68
2023-04-11T22:50:52.742Z,14.68
2023-04-11T22:53:24.742Z,14.68
2023-04-11T22:55:55.540Z,14.66
2023-04-11T22:58:26.012Z,14.64
2023-04-11T23:00:56.405Z,14.64
2023-04-11T23:06:17.029Z,14.61
2023-04-11T23:08:47.705Z,14.59
2023-04-11T23:11:18.172Z,14.63
2023-04-11T23:13:49.992Z,14.65
2023-04-11T23:16:23.275Z,14.66
2023-04-11T23:19:04.559Z,14.66
2023-04-11T23:21:43.004Z,14.66
2023-04-11T23:24:13.747Z,14.66
2023-04-11T23:26:45.152Z,14.64
2023-04-11T23:29:22.069Z,14.62
2023-04-11T23:31:53.298Z,14.58
2023-04-11T23:34:24.155Z,14.54
2023-04-11T23:36:57.856Z,14.53
2023-04-11T23:39:28.286Z,14.53
2023-04-11T23:41:58.661Z,14.54
2023-04-11T23:44:28.802Z,14.56
2023-04-11T23:47:00.681Z,14.58
2023-04-11T23:49:32.550Z,14.58
2023-04-11T23:52:03.564Z,14.56
2023-04-11T23:54:36.200Z,14.55
2023-04-11T23:57:07.033Z,14.55
2023-04-11T23:59:38.221Z,14.55
